Time;durP1;ratioP1;P1;durP2;ratioP2;P2;SDS_P1;SDS_P2;PMS_P1;PMS_P2;Temp;Humidity;BMP_temperature;BMP_pressure;BME280_temperature;BME280_humidity;BME280_pressure;Samples;Min_cycle;Max_cycle;Signal;HPM_P1;HPM_P2
2022/10/08 00:00:57;;;;;;;8.00;4.80;;;;;;;13.16;58.39;93154.00;2051327;69;20188;-77
2022/10/08 00:03:26;;;;;;;6.30;4.47;;;;;;;13.14;58.98;93159.50;2051170;70;20176;-77
2022/10/08 00:06:11;;;;;;;8.55;4.63;;;;;;;13.07;59.05;93162.63;2053526;70;20537;-73
2022/10/08 00:08:39;;;;;;;9.20;4.53;;;;;;;12.94;59.39;93159.06;2050681;70;20146;-76
2022/10/08 00:11:07;;;;;;;7.88;4.50;;;;;;;13.02;58.79;93152.44;2050539;70;20150;-76
2022/10/08 00:13:41;;;;;;;9.35;4.60;;;;;;;13.00;58.65;93157.94;2051130;70;20189;-73
2022/10/08 00:16:20;;;;;;;6.65;4.50;;;;;;;12.98;58.94;93152.91;2051316;69;20142;-76
2022/10/08 00:18:47;;;;;;;9.13;4.50;;;;;;;12.94;58.72;93152.69;2051300;70;20150;-76
2022/10/08 00:21:16;;;;;;;7.82;4.35;;;;;;;12.83;60.10;93156.22;2047960;70;20146;-76
2022/10/08 00:23:45;;;;;;;8.90;4.43;;;;;;;12.85;59.16;93165.56;2051129;70;20185;-75
2022/10/08 00:26:11;;;;;;;8.35;4.22;;;;;;;12.86;58.77;93158.56;2051364;70;20608;-77
2022/10/08 00:28:40;;;;;;;11.02;4.95;;;;;;;12.82;59.28;93155.50;2048126;70;20253;-79
2022/10/08 00:31:09;;;;;;;10.07;4.40;;;;;;;13.00;58.32;93155.13;2051121;70;20241;-76
2022/10/08 00:33:36;;;;;;;8.07;4.75;;;;;;;12.89;58.78;93163.00;2051314;69;20131;-77
2022/10/08 00:36:08;;;;;;;8.55;4.43;;;;;;;12.80;59.90;93161.03;2051261;70;20143;-76
2022/10/08 00:38:34;;;;;;;9.43;4.65;;;;;;;12.86;59.28;93164.22;2051334;70;20155;-77
2022/10/08 00:41:00;;;;;;;8.20;4.75;;;;;;;12.42;61.56;93153.81;2051116;70;20256;-77
2022/10/08 00:43:47;;;;;;;9.75;4.80;;;;;;;12.67;59.81;93158.84;2053735;70;20143;-77
2022/10/08 00:46:26;;;;;;;8.07;4.60;;;;;;;12.71;59.68;93156.25;2051474;70;20212;-75
2022/10/08 00:49:10;;;;;;;6.65;4.38;;;;;;;12.61;59.80;93145.09;2051354;70;20166;-78
2022/10/08 00:51:40;;;;;;;6.75;4.82;;;;;;;12.59;59.78;93147.03;2051283;70;20154;-79
2022/10/08 00:54:06;;;;;;;7.90;4.70;;;;;;;12.55;59.90;93143.97;2051317;70;20185;-78
2022/10/08 00:56:36;;;;;;;9.15;4.30;;;;;;;12.30;60.98;93150.97;2051331;70;20629;-76
2022/10/08 00:59:02;;;;;;;6.97;4.40;;;;;;;12.30;61.24;93150.97;2051287;70;20237;-76
2022/10/08 01:01:30;;;;;;;7.20;4.78;;;;;;;12.35;60.33;93147.03;2051315;70;20553;-77
2022/10/08 01:04:00;;;;;;;7.65;4.47;;;;;;;12.38;60.17;93148.66;2051214;70;20234;-77
2022/10/08 01:06:37;;;;;;;8.32;4.30;;;;;;;12.40;59.77;93143.09;2051560;70;20482;-78
2022/10/08 01:09:10;;;;;;;9.38;4.93;;;;;;;12.41;60.48;93144.56;2050745;70;20177;-78
2022/10/08 01:11:52;;;;;;;;;;;;;;;12.40;60.44;93143.09;2051514;69;20146;-77
2022/10/08 01:14:27;;;;;;;10.32;4.85;;;;;;;12.21;61.02;93135.63;2051214;70;20050;-77
2022/10/08 01:17:20;;;;;;;6.28;4.22;;;;;;;12.29;60.41;93137.47;2051120;70;20142;-77
2022/10/08 01:19:52;;;;;;;5.68;4.53;;;;;;;12.48;58.64;93140.06;2051240;70;20158;-78
2022/10/08 01:22:42;;;;;;;8.98;4.38;;;;;;;12.40;59.46;93139.56;2051303;70;20170;-78
2022/10/08 01:25:39;;;;;;;9.40;4.75;;;;;;;12.33;59.81;93127.16;2051285;70;20142;-78
2022/10/08 01:28:28;;;;;;;6.25;4.43;;;;;;;12.31;59.72;93132.66;2051237;70;20178;-78
2022/10/08 01:31:01;;;;;;;7.35;4.80;;;;;;;12.11;60.69;93132.16;2051064;70;20511;-77
2022/10/08 01:33:52;;;;;;;9.95;4.72;;;;;;;12.18;59.89;93131.19;2053517;70;20156;-77
2022/10/08 01:36:20;;;;;;;5.57;4.32;;;;;;;12.20;59.29;93133.41;2051359;70;20169;-78
2022/10/08 01:38:52;;;;;;;7.15;4.18;;;;;;;11.57;63.27;93123.78;2051102;70;20166;-78
2022/10/08 01:41:20;;;;;;;6.57;4.20;;;;;;;12.11;60.21;93139.91;2048038;70;20143;-77
2022/10/08 01:43:53;;;;;;;9.25;4.53;;;;;;;12.07;60.83;93125.53;2050661;70;20598;-79
2022/10/08 01:46:25;;;;;;;7.78;4.30;;;;;;;12.03;60.29;93137.31;2051271;70;20146;-77
2022/10/08 01:48:55;;;;;;;10.25;4.68;;;;;;;12.03;60.87;93142.22;2051260;70;20158;-77
2022/10/08 01:51:28;;;;;;;7.05;4.57;;;;;;;11.92;60.90;93129.56;2051294;70;20669;-77
2022/10/08 01:53:54;;;;;;;11.52;4.75;;;;;;;11.85;61.03;93125.63;2051290;70;20147;-77
2022/10/08 01:56:24;;;;;;;8.68;4.40;;;;;;;11.87;61.04;93122.19;2051247;70;20259;-78
2022/10/08 01:59:34;;;;;;;8.82;4.82;;;;;;;11.95;60.38;93123.41;2051301;70;20158;-76
2022/10/08 02:02:12;;;;;;;6.47;4.20;;;;;;;11.91;60.80;93119.59;2048062;70;20319;-77
2022/10/08 02:04:37;;;;;;;7.28;4.22;;;;;;;11.89;60.57;93116.66;2051227;70;20150;-76
2022/10/08 02:07:08;;;;;;;7.30;4.60;;;;;;;11.83;61.33;93119.84;2051143;70;20138;-79
2022/10/08 02:09:42;;;;;;;9.68;3.95;;;;;;;11.95;59.94;93108.56;2051143;70;20147;-77
2022/10/08 02:12:09;;;;;;;5.97;4.20;;;;;;;11.82;61.10;93111.97;2050511;70;20146;-77
2022/10/08 02:14:39;;;;;;;6.88;4.20;;;;;;;12.11;59.13;93120.16;2050880;70;20215;-75
2022/10/08 02:17:49;;;;;;;7.35;3.95;;;;;;;12.14;58.93;93110.44;2051406;70;20216;-78
2022/10/08 02:20:24;;;;;;;8.52;4.13;;;;;;;12.20;59.06;93116.47;2051566;70;20574;-77
2022/10/08 02:22:57;;;;;;;12.57;4.20;;;;;;;12.10;59.96;93113.03;2051678;70;20146;-77
2022/10/08 02:25:42;;;;;;;9.35;4.13;;;;;;;12.14;58.79;93118.91;2051680;70;20138;-77
2022/10/08 02:28:17;;;;;;;7.97;4.25;;;;;;;12.04;60.03;93118.28;2051616;70;20156;-77
2022/10/08 02:31:01;;;;;;;7.00;4.40;;;;;;;12.00;59.93;93112.38;2051616;70;20138;-78
2022/10/08 02:33:53;;;;;;;7.82;4.32;;;;;;;12.04;59.99;93116.19;2051641;70;20216;-77
2022/10/08 02:36:24;;;;;;;7.93;4.10;;;;;;;12.00;60.21;93110.31;2048258;70;20530;-78
2022/10/08 02:38:54;;;;;;;9.50;4.15;;;;;;;11.99;60.44;93114.47;2051729;70;20154;-77
2022/10/08 02:41:31;;;;;;;9.70;4.47;;;;;;;11.97;61.29;93108.72;2053735;70;20229;-78
2022/10/08 02:44:01;;;;;;;7.30;4.25;;;;;;;11.98;60.51;93117.91;2051979;70;20142;-75
2022/10/08 02:46:34;;;;;;;11.40;4.03;;;;;;;12.09;59.35;93115.09;2051638;70;20205;-77
2022/10/08 02:49:09;;;;;;;7.05;3.78;;;;;;;12.08;59.85;93119.28;2051588;70;20139;-77
2022/10/08 02:51:39;;;;;;;8.27;4.20;;;;;;;12.00;61.43;93124.41;2051660;70;20146;-78
2022/10/08 02:54:07;;;;;;;6.75;3.70;;;;;;;12.04;59.77;93118.28;2051592;70;20360;-76
2022/10/08 02:56:41;;;;;;;6.97;4.13;;;;;;;11.85;60.53;93130.53;2051585;70;20260;-75
2022/10/08 02:59:09;;;;;;;5.43;3.58;;;;;;;11.86;61.08;93135.53;2051022;70;20150;-77
2022/10/08 03:01:46;;;;;;;9.25;4.28;;;;;;;11.79;60.64;93133.66;2051382;69;20142;-77
2022/10/08 03:04:27;;;;;;;7.07;4.10;;;;;;;11.74;61.04;93128.38;2051558;70;20233;-77
2022/10/08 03:06:53;;;;;;;5.47;3.88;;;;;;;11.75;60.54;93127.03;2051008;70;20150;-77
2022/10/08 03:09:22;;;;;;;7.45;3.97;;;;;;;11.74;60.65;93134.75;2051535;70;20146;-77
2022/10/08 03:11:49;;;;;;;10.65;4.40;;;;;;;11.75;60.47;93133.41;2051441;70;20260;-78
2022/10/08 03:14:17;;;;;;;6.68;3.80;;;;;;;11.65;61.26;93133.50;2051453;70;20166;-75
2022/10/08 03:16:45;;;;;;;9.70;3.95;;;;;;;11.58;61.21;93139.34;2051368;69;20241;-76
2022/10/08 03:19:13;;;;;;;8.02;4.10;;;;;;;11.57;60.75;93138.63;2051504;69;20237;-77
2022/10/08 03:21:42;;;;;;;6.15;3.88;;;;;;;11.62;60.15;93131.16;2051475;70;20555;-76
2022/10/08 03:24:10;;;;;;;6.65;4.10;;;;;;;11.45;61.77;93132.97;2050996;70;20147;-77
2022/10/08 03:26:36;;;;;;;11.63;4.10;;;;;;;11.48;61.43;93133.06;2051461;70;20233;-77
2022/10/08 03:29:04;;;;;;;8.90;4.18;;;;;;;11.41;61.87;93135.53;2051666;70;20487;-77
2022/10/08 03:31:30;;;;;;;9.85;4.28;;;;;;;11.42;61.49;93127.78;2051502;70;20693;-77
2022/10/08 03:33:56;;;;;;;8.05;4.03;;;;;;;11.35;61.68;93137.19;2051582;70;20138;-76
2022/10/08 03:36:23;;;;;;;7.40;4.10;;;;;;;11.35;61.65;93135.09;2051439;70;20601;-77
2022/10/08 03:38:49;;;;;;;6.88;4.38;;;;;;;11.25;62.29;93139.34;2051406;70;20323;-78
2022/10/08 03:41:16;;;;;;;7.47;3.95;;;;;;;11.40;60.80;93134.03;2051417;70;20339;-77
2022/10/08 03:43:42;;;;;;;7.47;4.15;;;;;;;11.25;61.60;93145.00;2053540;70;20237;-78
2022/10/08 03:46:10;;;;;;;7.20;4.20;;;;;;;11.28;62.69;93147.34;2051285;70;20154;-78
2022/10/08 03:48:36;;;;;;;6.50;3.90;;;;;;;11.31;62.46;93142.56;2051485;70;20138;-74
2022/10/08 03:51:06;;;;;;;7.32;4.90;;;;;;;10.87;65.48;93150.31;2051378;70;20166;-78
2022/10/08 03:53:35;;;;;;;8.77;5.18;;;;;;;11.00;63.13;93149.03;2051377;70;20215;-77
2022/10/08 03:56:03;;;;;;;7.40;4.55;;;;;;;11.12;62.51;93152.63;2051484;70;20489;-78
2022/10/08 03:58:29;;;;;;;7.78;4.57;;;;;;;11.10;62.77;93151.78;2051505;70;20150;-78
2022/10/08 04:00:57;;;;;;;8.13;4.55;;;;;;;11.26;59.82;93155.66;2051448;70;20158;-77
2022/10/08 04:03:24;;;;;;;12.15;5.65;;;;;;;11.22;61.57;93157.47;2051444;70;20525;-78
2022/10/08 04:05:50;;;;;;;11.70;7.40;;;;;;;11.02;63.64;93154.78;2051471;70;20261;-78
2022/10/08 04:08:16;;;;;;;16.38;9.77;;;;;;;11.16;61.82;93150.09;2051375;70;20298;-76
2022/10/08 04:10:41;;;;;;;10.02;6.57;;;;;;;11.24;60.93;93149.16;2051444;70;20182;-76
2022/10/08 04:13:07;;;;;;;12.52;6.75;;;;;;;11.20;60.88;93153.19;2051348;70;20153;-77
2022/10/08 04:15:33;;;;;;;12.32;5.90;;;;;;;11.20;61.43;93149.63;2051172;70;20146;-77
2022/10/08 04:17:59;;;;;;;11.98;5.85;;;;;;;11.07;62.43;93150.16;2050810;70;20618;-79
2022/10/08 04:20:24;;;;;;;18.33;5.95;;;;;;;11.05;61.55;93158.50;2051451;70;20652;-77
2022/10/08 04:22:50;;;;;;;14.68;6.45;;;;;;;10.91;62.14;93159.03;2051364;70;20629;-77
2022/10/08 04:25:16;;;;;;;24.52;14.00;;;;;;;10.97;62.94;93157.94;2051466;70;20147;-76
2022/10/08 04:27:43;;;;;;;24.65;12.68;;;;;;;11.04;62.17;93145.72;2051632;69;20184;-77
2022/10/08 04:30:09;;;;;;;23.10;13.65;;;;;;;11.03;62.93;93149.91;2051331;70;20189;-77
2022/10/08 04:32:34;;;;;;;20.70;11.55;;;;;;;10.86;63.14;93148.84;2051375;70;20170;-77
2022/10/08 04:35:00;;;;;;;21.95;11.65;;;;;;;10.89;62.76;93144.78;2051645;70;20551;-78
2022/10/08 04:37:25;;;;;;;45.55;19.35;;;;;;;10.86;63.14;93145.28;2051454;70;20158;-76
2022/10/08 04:39:51;;;;;;;95.55;48.83;;;;;;;10.93;62.71;93141.50;2051335;70;20134;-76
2022/10/08 04:42:17;;;;;;;108.25;52.88;;;;;;;10.87;62.29;93144.66;2051347;70;20173;-77
2022/10/08 04:44:43;;;;;;;76.30;40.08;;;;;;;10.87;62.42;93143.94;2051344;70;20514;-77
2022/10/08 04:47:08;;;;;;;50.72;28.13;;;;;;;10.81;61.99;93152.72;2051549;70;20165;-79
2022/10/08 04:49:34;;;;;;;25.50;13.75;;;;;;;10.90;61.80;93156.78;2051308;70;20236;-77
2022/10/08 04:52:00;;;;;;;31.42;14.77;;;;;;;10.81;63.06;93158.34;2051537;70;20138;-75
2022/10/08 04:54:25;;;;;;;26.77;15.50;;;;;;;10.83;62.19;93149.28;2051518;70;20147;-77
2022/10/08 04:56:51;;;;;;;58.90;31.10;;;;;;;10.82;62.23;93156.28;2051258;70;20230;-76
2022/10/08 04:59:16;;;;;;;67.70;35.10;;;;;;;10.81;62.35;93168.84;2051247;70;20142;-77
2022/10/08 05:01:42;;;;;;;69.20;35.00;;;;;;;10.74;62.30;93158.53;2051137;70;20264;-77
2022/10/08 05:04:07;;;;;;;52.63;26.27;;;;;;;10.76;62.30;93164.28;2051249;70;20150;-77
2022/10/08 05:06:33;;;;;;;91.65;42.88;;;;;;;10.73;62.85;93162.69;2051469;70;20263;-78
2022/10/08 05:09:03;;;;;;;54.00;25.98;;;;;;;10.72;62.47;93170.41;2051302;70;20158;-77
2022/10/08 05:11:29;;;;;;;56.35;30.63;;;;;;;10.66;61.73;93162.28;2050777;70;20142;-77
2022/10/08 05:13:57;;;;;;;51.75;28.02;;;;;;;10.76;62.63;93159.41;2051133;70;20497;-75
2022/10/08 05:16:23;;;;;;;32.67;17.92;;;;;;;10.67;63.62;93163.78;2051015;69;20165;-77
2022/10/08 05:18:50;;;;;;;14.45;8.77;;;;;;;10.78;63.16;93156.72;2051257;70;20237;-76
2022/10/08 05:21:27;;;;;;;9.07;5.43;;;;;;;10.85;62.42;93158.59;2051157;70;20142;-76
2022/10/08 05:23:59;;;;;;;10.95;5.85;;;;;;;10.85;63.14;93155.03;2051171;70;20178;-80
2022/10/08 05:26:28;;;;;;;8.45;5.10;;;;;;;10.92;62.25;93156.94;2051245;70;20680;-77
2022/10/08 05:28:55;;;;;;;8.32;5.30;;;;;;;10.75;63.27;93162.81;2051218;70;20145;-77
2022/10/08 05:31:22;;;;;;;12.13;7.53;;;;;;;10.83;62.75;93172.56;2051135;70;20551;-77
2022/10/08 05:33:49;;;;;;;13.55;8.38;;;;;;;10.86;62.39;93162.91;2051086;70;20293;-76
2022/10/08 05:36:21;;;;;;;14.20;8.20;;;;;;;10.83;62.85;93160.56;2051142;70;20471;-77
2022/10/08 05:38:47;;;;;;;14.10;8.10;;;;;;;10.38;66.80;93163.16;2051170;70;20234;-77
2022/10/08 05:41:16;;;;;;;14.20;8.38;;;;;;;10.76;63.00;93164.28;2051170;70;20174;-76
2022/10/08 05:43:42;;;;;;;13.15;8.00;;;;;;;10.94;62.31;93160.63;2053396;70;20177;-76
2022/10/08 05:46:08;;;;;;;12.48;7.80;;;;;;;10.99;62.56;93158.81;2051018;70;20156;-77
2022/10/08 05:48:34;;;;;;;12.57;8.70;;;;;;;11.04;62.10;93174.66;2053473;70;20146;-77
2022/10/08 05:51:08;;;;;;;15.98;9.38;;;;;;;11.08;60.57;93172.09;2051527;70;20166;-76
2022/10/08 05:53:35;;;;;;;18.38;11.00;;;;;;;11.00;62.37;93176.47;2051633;69;20265;-77
2022/10/08 05:56:04;;;;;;;19.60;11.73;;;;;;;10.96;62.72;93176.94;2051689;69;20154;-76
2022/10/08 05:58:32;;;;;;;21.38;13.13;;;;;;;11.06;62.97;93177.59;2053996;70;20237;-77
2022/10/08 06:01:23;;;;;;;18.27;12.90;;;;;;;11.06;62.48;93179.69;2051506;70;20138;-77
2022/10/08 06:04:01;;;;;;;22.35;12.88;;;;;;;10.83;65.19;93189.47;2053862;69;20170;-74
2022/10/08 06:06:27;;;;;;;20.08;12.73;;;;;;;11.06;63.53;93194.50;2051594;70;20219;-75
2022/10/08 06:08:54;;;;;;;19.23;11.70;;;;;;;11.17;62.12;93204.38;2051619;70;20181;-77
2022/10/08 06:11:21;;;;;;;19.52;12.70;;;;;;;11.29;61.92;93202.38;2051594;70;20146;-77
2022/10/08 06:13:51;;;;;;;19.10;12.98;;;;;;;11.29;62.98;93202.38;2051520;70;20146;-76
2022/10/08 06:16:16;;;;;;;18.05;11.48;;;;;;;11.37;62.52;93199.34;2051475;70;20127;-79
2022/10/08 06:18:42;;;;;;;23.52;13.05;;;;;;;11.39;61.13;93194.56;2051567;70;20271;-77
2022/10/08 06:21:13;;;;;;;20.05;12.85;;;;;;;11.39;63.48;93194.56;2051557;70;20149;-76
2022/10/08 06:23:44;;;;;;;22.77;14.45;;;;;;;11.41;62.72;93202.44;2051575;70;20207;-77
2022/10/08 06:26:10;;;;;;;22.65;12.85;;;;;;;11.36;63.33;93192.97;2051623;70;20245;-75
2022/10/08 06:28:37;;;;;;;18.98;12.68;;;;;;;11.51;61.70;93196.72;2051603;70;20594;-77
2022/10/08 06:31:06;;;;;;;20.63;13.48;;;;;;;11.58;62.19;93202.13;2050931;70;20308;-74
2022/10/08 06:33:32;;;;;;;20.80;12.80;;;;;;;11.58;62.37;93204.94;2048293;70;20150;-77
2022/10/08 06:36:03;;;;;;;20.80;12.05;;;;;;;11.56;62.68;93210.47;2051425;70;20182;-73
2022/10/08 06:38:29;;;;;;;20.75;11.70;;;;;;;11.70;61.68;93211.38;2051668;70;20170;-74
2022/10/08 06:40:56;;;;;;;19.55;11.60;;;;;;;11.87;60.69;93221.66;2051484;70;20194;-75
2022/10/08 06:43:22;;;;;;;17.70;11.55;;;;;;;11.95;62.31;93225.00;2051429;69;20169;-76
2022/10/08 06:45:48;;;;;;;17.30;10.38;;;;;;;12.07;61.15;93227.13;2051420;70;20558;-76
2022/10/08 06:48:13;;;;;;;19.70;11.02;;;;;;;12.23;59.91;93233.78;2051540;70;20173;-76
2022/10/08 06:50:40;;;;;;;16.50;10.70;;;;;;;12.33;59.17;93230.88;2051816;70;20680;-76
2022/10/08 06:53:08;;;;;;;26.30;15.52;;;;;;;12.06;64.44;93234.13;2051514;70;20612;-76
2022/10/08 06:55:34;;;;;;;20.23;11.80;;;;;;;12.18;62.34;93234.88;2051449;70;20599;-75
2022/10/08 06:58:01;;;;;;;18.42;12.23;;;;;;;12.45;60.16;93238.00;2051471;70;20241;-77
2022/10/08 07:00:27;;;;;;;19.90;11.85;;;;;;;12.54;61.08;93235.69;2051469;70;20151;-77
2022/10/08 07:02:53;;;;;;;19.08;11.60;;;;;;;12.60;60.40;93236.81;2048006;70;20236;-76
2022/10/08 07:05:18;;;;;;;21.33;11.13;;;;;;;12.44;62.56;93242.19;2051518;70;20208;-75
2022/10/08 07:07:44;;;;;;;19.38;11.75;;;;;;;12.54;62.46;93235.69;2051459;69;20303;-76
2022/10/08 07:10:10;;;;;;;16.50;9.80;;;;;;;12.72;60.69;93239.66;2050849;70;20629;-74
2022/10/08 07:12:36;;;;;;;16.33;10.20;;;;;;;12.61;61.27;93249.59;2051323;70;20622;-77
2022/10/08 07:15:01;;;;;;;14.95;9.50;;;;;;;12.88;59.54;93239.91;2051252;70;20154;-76
2022/10/08 07:17:28;;;;;;;19.13;11.48;;;;;;;13.09;59.55;93253.91;2051519;70;20231;-77
2022/10/08 07:19:54;;;;;;;19.08;11.32;;;;;;;13.26;57.66;93241.50;2051438;70;20174;-72
2022/10/08 07:22:20;;;;;;;16.77;11.35;;;;;;;13.37;58.04;93254.88;2051573;69;20150;-75
2022/10/08 07:24:46;;;;;;;16.42;10.23;;;;;;;13.40;59.63;93245.19;2051420;69;20249;-72
2022/10/08 07:27:12;;;;;;;12.75;7.53;;;;;;;13.51;57.28;93243.66;2051392;70;20571;-77
2022/10/08 07:29:38;;;;;;;12.93;8.30;;;;;;;13.63;56.43;93243.66;2051203;70;20264;-76
2022/10/08 07:32:03;;;;;;;15.00;9.20;;;;;;;13.68;56.17;93246.09;2051511;70;20146;-77
2022/10/08 07:34:29;;;;;;;17.17;10.68;;;;;;;13.88;56.30;93243.72;2048059;70;20343;-76
2022/10/08 07:36:54;;;;;;;18.35;10.05;;;;;;;14.02;55.97;93251.53;2051341;70;20594;-77
2022/10/08 07:39:21;;;;;;;14.93;8.32;;;;;;;14.08;55.79;93249.78;2050000;70;20150;-73
2022/10/08 07:41:48;;;;;;;17.30;8.90;;;;;;;13.89;58.48;93255.78;2051011;70;20233;-74
2022/10/08 07:44:15;;;;;;;13.35;8.98;;;;;;;13.86;57.55;93252.06;2051251;70;20245;-75
2022/10/08 07:46:44;;;;;;;15.20;9.50;;;;;;;13.94;57.27;93244.06;2051293;70;20146;-72
2022/10/08 07:49:09;;;;;;;16.10;8.60;;;;;;;14.27;54.03;93245.88;2051357;70;20200;-75
2022/10/08 07:51:35;;;;;;;16.77;9.75;;;;;;;14.40;54.55;93242.38;2051353;70;20620;-78
2022/10/08 07:54:03;;;;;;;15.52;10.07;;;;;;;14.51;55.73;93243.69;2051569;70;20158;-73
2022/10/08 07:56:30;;;;;;;16.70;9.85;;;;;;;14.35;58.13;93237.84;2051430;70;20197;-76
2022/10/08 07:58:56;;;;;;;25.23;11.80;;;;;;;14.51;56.93;93234.44;2051411;70;20543;-76
2022/10/08 08:01:28;;;;;;;18.58;10.68;;;;;;;14.82;56.23;93240.41;2051206;70;20612;-75
2022/10/08 08:03:56;;;;;;;30.55;18.80;;;;;;;14.96;55.40;93238.31;2051469;70;20605;-78
2022/10/08 08:06:23;;;;;;;39.30;21.10;;;;;;;15.05;56.93;93230.25;2051455;70;20602;-77
2022/10/08 08:08:49;;;;;;;28.60;15.82;;;;;;;15.24;55.02;93235.50;2051301;70;20154;-78
2022/10/08 08:11:17;;;;;;;25.30;15.30;;;;;;;15.56;56.72;93233.59;2051255;69;20155;-76
2022/10/08 08:13:43;;;;;;;18.25;10.95;;;;;;;15.65;56.21;93226.28;2050983;70;20275;-76
2022/10/08 08:16:14;;;;;;;19.58;10.32;;;;;;;15.97;54.89;93232.81;2051109;70;20150;-73
2022/10/08 08:18:44;;;;;;;12.88;8.02;;;;;;;16.39;55.36;93236.25;2051441;70;20217;-73
2022/10/08 08:21:13;;;;;;;10.45;6.65;;;;;;;16.56;52.73;93227.13;2051532;70;20150;-74
2022/10/08 08:23:44;;;;;;;12.88;6.78;;;;;;;17.01;53.79;93217.84;2051360;70;20142;-73
2022/10/08 08:26:12;;;;;;;10.98;6.10;;;;;;;17.29;51.06;93218.38;2048179;70;20158;-75
2022/10/08 08:28:40;;;;;;;11.20;6.00;;;;;;;17.17;51.89;93221.41;2051186;70;20571;-75
2022/10/08 08:31:06;;;;;;;14.52;9.10;;;;;;;17.66;50.10;93220.69;2051153;70;20146;-76
2022/10/08 08:33:32;;;;;;;13.18;7.28;;;;;;;17.86;50.47;93209.47;2051344;70;20201;-75
2022/10/08 08:35:58;;;;;;;9.30;5.68;;;;;;;18.29;48.66;93216.94;2048009;70;20217;-75
2022/10/08 08:38:23;;;;;;;12.50;6.13;;;;;;;18.60;49.41;93215.28;2051414;70;20201;-75
2022/10/08 08:40:49;;;;;;;12.25;6.13;;;;;;;19.04;47.34;93214.16;2051251;70;20143;-75
2022/10/08 08:43:15;;;;;;;13.05;5.80;;;;;;;19.21;46.95;93215.50;2051141;70;20174;-75
2022/10/08 08:45:42;;;;;;;9.35;5.13;;;;;;;19.31;45.22;93212.28;2051052;70;20252;-77
2022/10/08 08:48:14;;;;;;;6.53;4.82;;;;;;;19.66;44.26;93207.84;2051255;70;20554;-77
2022/10/08 08:50:41;;;;;;;12.85;4.82;;;;;;;19.99;44.27;93198.28;2051275;70;20158;-74
2022/10/08 08:53:09;;;;;;;24.40;14.95;;;;;;;19.80;43.36;93191.22;2050911;70;20149;-73
2022/10/08 08:55:42;;;;;;;9.68;4.88;;;;;;;19.74;43.36;93188.84;2051266;70;20154;-76
2022/10/08 08:58:37;;;;;;;8.13;4.10;;;;;;;20.43;42.64;93183.97;2051411;70;20154;-74
2022/10/08 09:01:09;;;;;;;8.10;3.97;;;;;;;20.46;42.26;93194.81;2049848;70;20203;-76
2022/10/08 09:03:40;;;;;;;13.52;8.80;;;;;;;20.25;42.04;93196.28;2051342;70;20745;-74
2022/10/08 09:06:12;;;;;;;7.43;3.95;;;;;;;21.09;40.97;93187.47;2047980;70;20138;-76
2022/10/08 09:08:55;;;;;;;10.68;4.18;;;;;;;20.77;41.81;93187.94;2051288;70;20146;-73
2022/10/08 09:11:23;;;;;;;4.88;3.58;;;;;;;20.88;40.84;93196.81;2051279;70;20154;-74
2022/10/08 09:14:16;;;;;;;7.22;4.07;;;;;;;21.51;40.60;93195.84;2051134;70;20201;-73
2022/10/08 09:16:42;;;;;;;9.85;4.45;;;;;;;21.63;41.42;93193.31;2053335;69;20226;-73
2022/10/08 09:19:08;;;;;;;6.30;3.38;;;;;;;22.41;39.43;93196.06;2051344;70;20252;-74
2022/10/08 09:21:34;;;;;;;6.13;3.83;;;;;;;22.21;39.76;93192.69;2051316;70;20166;-74
2022/10/08 09:24:00;;;;;;;4.78;3.47;;;;;;;22.51;39.74;93187.00;2051222;70;20139;-75
2022/10/08 09:26:31;;;;;;;7.30;3.50;;;;;;;22.48;37.86;93180.47;2053339;70;20162;-75
2022/10/08 09:29:00;;;;;;;7.32;3.30;;;;;;;22.64;40.04;93185.13;2051229;70;20172;-75
2022/10/08 09:31:46;;;;;;;4.68;3.20;;;;;;;23.73;36.86;93186.06;2051087;70;20486;-76
2022/10/08 09:34:14;;;;;;;5.15;3.33;;;;;;;22.97;38.40;93180.91;2051341;70;20617;-75
2022/10/08 09:36:44;;;;;;;4.95;3.45;;;;;;;22.38;36.89;93185.22;2051189;70;20245;-76
2022/10/08 09:39:21;;;;;;;4.30;3.13;;;;;;;23.30;35.94;93183.03;2051352;70;20150;-76
2022/10/08 09:42:05;;;;;;;5.03;3.70;;;;;;;23.98;37.27;93178.66;2051268;70;20223;-76
2022/10/08 09:44:57;;;;;;;9.32;3.92;;;;;;;22.59;36.38;93187.19;2051213;70;20204;-76
2022/10/08 09:47:25;;;;;;;4.93;3.90;;;;;;;23.94;35.46;93185.03;2051266;70;20281;-76
2022/10/08 09:50:18;;;;;;;9.43;4.57;;;;;;;24.34;36.36;93182.16;2051205;70;20153;-77
2022/10/08 09:52:45;;;;;;;3.90;3.50;;;;;;;25.08;35.63;93181.22;2051138;70;20166;-75
2022/10/08 09:55:14;;;;;;;4.30;3.15;;;;;;;26.01;34.99;93174.44;2051295;70;20151;-76
2022/10/08 09:57:45;;;;;;;5.75;3.92;;;;;;;24.57;33.40;93168.91;2051120;70;20148;-76
2022/10/08 10:00:22;;;;;;;5.78;3.10;;;;;;;24.88;32.95;93166.50;2051239;70;20185;-76
2022/10/08 10:02:53;;;;;;;5.75;3.30;;;;;;;25.45;33.60;93164.41;2051116;70;20146;-76
2022/10/08 10:05:25;;;;;;;4.90;3.30;;;;;;;25.99;32.16;93163.63;2051150;70;20174;-76
2022/10/08 10:07:51;;;;;;;6.07;3.35;;;;;;;25.24;32.00;93159.81;2051134;70;20209;-76
2022/10/08 10:10:23;;;;;;;5.30;3.60;;;;;;;24.86;32.61;93160.69;2051027;70;20157;-76
2022/10/08 10:12:57;;;;;;;5.65;3.30;;;;;;;25.62;32.56;93155.97;2050962;70;20150;-75
2022/10/08 10:15:33;;;;;;;8.70;3.60;;;;;;;23.91;33.74;93157.66;2050776;70;20165;-76
2022/10/08 10:18:03;;;;;;;3.78;3.10;;;;;;;25.56;33.16;93150.84;2051093;70;20142;-76
2022/10/08 10:20:36;;;;;;;4.53;2.90;;;;;;;26.45;30.51;93148.22;2051163;70;20587;-76
2022/10/08 10:23:11;;;;;;;7.00;3.60;;;;;;;26.83;30.50;93142.00;2051082;70;20138;-76
2022/10/08 10:25:58;;;;;;;5.00;3.10;;;;;;;27.41;29.89;93148.88;2051024;70;20138;-76
2022/10/08 10:28:30;;;;;;;6.25;3.22;;;;;;;26.59;29.75;93145.44;2050470;70;20553;-74
2022/10/08 10:31:38;;;;;;;5.63;3.10;;;;;;;26.17;30.38;93137.13;2051043;70;20149;-76
2022/10/08 10:34:14;;;;;;;4.22;3.00;;;;;;;26.11;29.69;93137.03;2036688;70;20596;-75
2022/10/08 10:36:51;;;;;;;4.95;2.92;;;;;;;26.63;30.08;93129.59;2036752;70;20174;-76
2022/10/08 10:39:29;;;;;;;6.97;2.60;;;;;;;26.74;30.01;93125.31;2037241;70;20203;-75
2022/10/08 10:42:13;;;;;;;3.20;2.80;;;;;;;26.94;30.50;93121.84;2037247;70;20160;-76
2022/10/08 10:44:52;;;;;;;5.28;3.03;;;;;;;26.70;31.33;93123.13;2037208;70;20144;-75
2022/10/08 10:47:24;;;;;;;3.55;2.70;;;;;;;25.70;30.92;93110.63;2037282;70;20148;-77
2022/10/08 10:49:51;;;;;;;4.95;2.92;;;;;;;25.25;32.48;93106.53;2037254;70;20546;-77
2022/10/08 10:52:35;;;;;;;7.20;3.00;;;;;;;26.84;30.48;93099.38;2037291;70;20239;-80
2022/10/08 10:55:16;;;;;;;5.65;3.60;;;;;;;27.61;29.95;93111.34;2037290;70;20192;-76
2022/10/08 10:58:16;;;;;;;4.15;3.38;;;;;;;26.29;30.05;93098.97;2037217;70;20152;-75
2022/10/08 11:01:14;;;;;;;7.35;3.10;;;;;;;25.84;31.47;93093.53;2036996;70;20155;-76
2022/10/08 11:03:59;;;;;;;5.15;3.50;;;;;;;25.48;32.24;93087.34;2037193;70;20235;-75
2022/10/08 11:06:39;;;;;;;5.18;3.70;;;;;;;25.46;32.95;93088.03;2037281;70;20152;-76
2022/10/08 11:09:15;;;;;;;3.95;3.47;;;;;;;25.73;32.85;93077.53;2051034;70;20142;-74
2022/10/08 11:11:51;;;;;;;5.72;3.65;;;;;;;25.06;33.13;93071.72;2051419;70;20157;-74
2022/10/08 11:14:48;;;;;;;6.63;3.40;;;;;;;24.38;33.08;93068.63;2051384;70;20214;-74
2022/10/08 11:17:13;;;;;;;5.82;3.63;;;;;;;24.06;32.98;93076.00;2051439;70;20625;-76
2022/10/08 11:19:54;;;;;;;6.97;3.60;;;;;;;22.96;34.62;93070.34;2051378;70;20134;-77
2022/10/08 11:22:38;;;;;;;4.32;3.25;;;;;;;22.58;36.13;93070.94;2051436;70;20141;-76
2022/10/08 11:25:03;;;;;;;4.03;3.40;;;;;;;22.41;36.77;93060.53;2051488;70;20704;-78
2022/10/08 11:28:04;;;;;;;6.53;3.22;;;;;;;23.44;36.08;93070.56;2051503;70;20162;-74
2022/10/08 11:30:46;;;;;;;7.85;4.03;;;;;;;22.97;36.07;93069.66;2043787;70;20230;-75
2022/10/08 11:33:14;;;;;;;8.77;3.63;;;;;;;22.58;37.02;93059.47;2051340;70;20597;-77
2022/10/08 11:35:48;;;;;;;7.47;4.10;;;;;;;22.05;38.62;93052.53;2050916;70;20152;-74
2022/10/08 11:38:40;;;;;;;5.18;4.05;;;;;;;22.59;37.50;93046.59;2050829;70;20185;-77
2022/10/08 11:41:25;;;;;;;8.45;4.28;;;;;;;21.44;39.79;93046.03;2049595;70;20155;-78
2022/10/08 11:43:59;;;;;;;8.77;4.60;;;;;;;21.36;40.79;93045.81;2051252;70;20166;-77
2022/10/08 11:46:28;;;;;;;8.05;4.40;;;;;;;21.49;40.25;93041.13;2051204;70;20242;-75